createdAt,value
2018-07-08T00:00:39.798Z,94.52
2018-07-08T00:03:10.740Z,94.35
2018-07-08T00:05:42.974Z,93.67
2018-07-08T00:08:13.644Z,93.84
2018-07-08T00:10:54.516Z,93.52
2018-07-08T00:13:25.684Z,94.00
2018-07-08T00:15:56.866Z,93.95
2018-07-08T00:18:28.052Z,93.92
2018-07-08T00:20:58.940Z,93.22
2018-07-08T00:23:30.535Z,92.88
2018-07-08T00:26:01.820Z,93.56
2018-07-08T00:28:32.683Z,93.85
2018-07-08T00:31:03.522Z,93.81
2018-07-08T00:33:34.340Z,93.85
2018-07-08T00:36:04.946Z,94.38
2018-07-08T00:38:35.977Z,95.00
2018-07-08T00:41:07.088Z,95.66
2018-07-08T00:43:38.015Z,95.71
2018-07-08T00:46:09.175Z,95.78
2018-07-08T00:48:41.056Z,95.93
2018-07-08T00:51:12.280Z,95.72
2018-07-08T00:53:42.667Z,95.29
2018-07-08T00:56:13.594Z,95.27
2018-07-08T00:58:44.914Z,95.32
2018-07-08T01:01:15.909Z,95.90
2018-07-08T01:03:46.764Z,95.71
2018-07-08T01:06:18.167Z,95.68
2018-07-08T01:08:50.223Z,95.96
2018-07-08T01:11:22.085Z,95.57
2018-07-08T01:13:53.060Z,94.99
2018-07-08T01:16:23.329Z,94.44
2018-07-08T01:18:54.292Z,93.56
2018-07-08T01:21:25.183Z,93.46
2018-07-08T01:23:56.703Z,93.59
2018-07-08T01:26:28.583Z,93.45
2018-07-08T01:29:00.639Z,93.87
2018-07-08T01:31:31.610Z,94.11
2018-07-08T01:34:03.583Z,94.32
2018-07-08T01:36:33.997Z,94.85
2018-07-08T01:39:05.462Z,94.76
2018-07-08T01:41:37.209Z,95.32
2018-07-08T01:44:08.750Z,95.68
2018-07-08T01:46:40.160Z,96.35
2018-07-08T01:49:11.358Z,96.58
2018-07-08T01:51:42.780Z,97.34
2018-07-08T01:54:13.701Z,97.62
2018-07-08T01:56:44.631Z,97.53
2018-07-08T01:59:15.545Z,97.27
2018-07-08T02:01:47.820Z,97.65
2018-07-08T02:04:18.782Z,97.76
2018-07-08T02:06:51.405Z,97.87
2018-07-08T02:09:23.076Z,97.61
2018-07-08T02:11:54.114Z,98.03
2018-07-08T02:14:25.611Z,97.66
2018-07-08T02:16:56.677Z,97.75
2018-07-08T02:19:27.599Z,97.56
2018-07-08T02:21:59.239Z,97.53
2018-07-08T02:24:30.864Z,97.49
2018-07-08T02:27:03.722Z,97.20
2018-07-08T02:29:35.168Z,97.11
2018-07-08T02:32:06.549Z,97.07
2018-07-08T02:34:37.538Z,97.26
2018-07-08T02:37:08.391Z,97.51
2018-07-08T02:39:39.573Z,97.28
2018-07-08T02:42:10.494Z,97.81
2018-07-08T02:44:41.695Z,97.35
2018-07-08T02:47:12.763Z,97.22
2018-07-08T02:49:43.805Z,97.27
2018-07-08T02:52:15.067Z,97.33
2018-07-08T02:54:46.024Z,97.50
2018-07-08T02:57:17.344Z,97.38
2018-07-08T02:59:48.311Z,97.50
2018-07-08T03:02:19.127Z,96.98
2018-07-08T03:04:50.082Z,97.10
2018-07-08T03:07:21.071Z,97.09
2018-07-08T03:09:52.259Z,96.41
2018-07-08T03:12:24.205Z,96.50
2018-07-08T03:14:55.040Z,96.96
2018-07-08T03:17:25.825Z,96.81
2018-07-08T03:19:57.313Z,96.90
2018-07-08T03:22:28.737Z,97.05
2018-07-08T03:25:00.128Z,97.22
2018-07-08T03:27:31.037Z,97.23
2018-07-08T03:30:01.590Z,97.30
2018-07-08T03:32:32.312Z,97.29
2018-07-08T03:35:03.064Z,97.35
2018-07-08T03:37:34.020Z,97.60
2018-07-08T03:40:05.749Z,97.75
2018-07-08T03:42:36.852Z,97.71
2018-07-08T03:45:07.768Z,97.76
2018-07-08T03:47:38.637Z,97.85
2018-07-08T03:50:09.649Z,97.50
2018-07-08T03:52:40.734Z,97.55
2018-07-08T03:55:11.954Z,98.07
2018-07-08T03:57:43.996Z,97.51
2018-07-08T04:00:14.987Z,97.89
2018-07-08T04:02:45.907Z,97.51
2018-07-08T04:05:17.223Z,97.65
2018-07-08T04:07:48.036Z,97.91
2018-07-08T04:10:19.015Z,97.56
2018-07-08T04:12:49.907Z,97.74
2018-07-08T04:15:21.535Z,97.41
2018-07-08T04:17:59.022Z,97.48
2018-07-08T04:20:30.184Z,97.09
2018-07-08T04:23:01.048Z,96.43
2018-07-08T04:25:32.525Z,96.27
2018-07-08T04:28:03.701Z,96.31
2018-07-08T04:30:35.935Z,95.97
2018-07-08T04:33:07.112Z,96.43
2018-07-08T04:35:37.967Z,95.64
2018-07-08T04:38:09.040Z,95.76
2018-07-08T04:40:40.180Z,95.24
2018-07-08T04:43:11.143Z,94.83
2018-07-08T04:45:42.094Z,94.89
2018-07-08T04:48:12.952Z,94.64
2018-07-08T04:50:43.892Z,94.83
2018-07-08T04:53:15.126Z,94.50
2018-07-08T04:55:47.469Z,94.30
2018-07-08T04:58:18.858Z,94.34
2018-07-08T05:00:49.870Z,94.06
2018-07-08T05:03:21.006Z,94.34
2018-07-08T05:05:51.893Z,94.03
2018-07-08T05:08:22.679Z,93.82
2018-07-08T05:10:53.635Z,93.62
2018-07-08T05:13:25.423Z,93.01
2018-07-08T05:15:56.962Z,92.50
2018-07-08T05:18:27.605Z,92.31
2018-07-08T05:20:58.555Z,91.83
2018-07-08T05:23:29.615Z,91.48
2018-07-08T05:26:00.556Z,91.29
2018-07-08T05:28:31.460Z,91.12
2018-07-08T05:31:02.568Z,90.84
2018-07-08T05:33:34.314Z,90.58
2018-07-08T05:36:05.405Z,89.76
2018-07-08T05:38:36.349Z,89.18
2018-07-08T05:41:07.358Z,88.56
2018-07-08T05:43:38.028Z,88.19
2018-07-08T05:46:08.300Z,87.79
2018-07-08T05:48:39.231Z,87.62
2018-07-08T05:51:10.177Z,86.90
2018-07-08T05:53:41.689Z,86.47
2018-07-08T05:56:12.840Z,85.81
2018-07-08T05:58:43.990Z,85.49
2018-07-08T06:01:15.873Z,84.57
2018-07-08T06:03:47.034Z,83.08
2018-07-08T06:06:18.002Z,82.50
2018-07-08T06:08:51.988Z,81.53
2018-07-08T06:11:24.006Z,80.35
2018-07-08T06:13:55.141Z,80.45
2018-07-08T06:16:26.024Z,80.70
2018-07-08T06:18:56.980Z,79.85
2018-07-08T06:21:28.778Z,77.43
2018-07-08T06:24:00.085Z,72.07
2018-07-08T06:26:30.910Z,67.99
2018-07-08T06:29:01.935Z,65.17
2018-07-08T06:31:32.851Z,63.70
2018-07-08T06:34:04.661Z,60.58
2018-07-08T06:36:35.932Z,59.51
2018-07-08T06:39:08.786Z,57.84
2018-07-08T06:41:39.577Z,56.97
2018-07-08T06:44:10.443Z,54.51
2018-07-08T06:46:41.358Z,52.91
2018-07-08T06:49:12.353Z,52.73
2018-07-08T06:51:43.089Z,53.31
2018-07-08T06:54:14.033Z,53.81
2018-07-08T06:56:46.630Z,53.53
2018-07-08T06:59:18.007Z,51.71
2018-07-08T07:01:49.125Z,51.91
2018-07-08T07:04:20.164Z,50.93
2018-07-08T07:06:51.135Z,50.82
2018-07-08T07:09:22.604Z,49.36
2018-07-08T07:11:53.765Z,49.20
2018-07-08T07:14:25.409Z,48.53
2018-07-08T07:16:56.951Z,47.08
2018-07-08T07:19:28.415Z,45.39
2018-07-08T07:21:59.589Z,44.67
2018-07-08T07:24:30.820Z,46.43
2018-07-08T07:27:02.215Z,44.20
2018-07-08T07:29:33.363Z,44.86
2018-07-08T07:32:05.564Z,43.04
2018-07-08T07:34:36.990Z,41.56
2018-07-08T07:37:08.620Z,40.93
2018-07-08T07:39:39.945Z,41.06
2018-07-08T07:42:10.795Z,40.45
2018-07-08T07:44:41.833Z,40.28
2018-07-08T07:47:13.707Z,39.17
2018-07-08T07:49:45.828Z,40.36
2018-07-08T07:52:17.333Z,41.88
2018-07-08T07:54:48.594Z,41.72
2018-07-08T07:57:19.769Z,40.01
2018-07-08T07:59:51.104Z,38.68
2018-07-08T08:02:25.339Z,37.66
2018-07-08T08:04:57.988Z,35.92
2018-07-08T08:07:31.945Z,36.06
2018-07-08T08:10:04.754Z,34.57
2018-07-08T08:12:35.805Z,33.96
2018-07-08T08:15:07.495Z,32.34
2018-07-08T08:17:38.831Z,31.09
2018-07-08T08:20:10.224Z,29.59
2018-07-08T08:22:43.750Z,28.79
2018-07-08T08:25:16.148Z,28.08
2018-07-08T08:27:48.590Z,28.07
2018-07-08T08:30:19.881Z,24.20
2018-07-08T08:32:51.650Z,24.74
2018-07-08T08:35:22.774Z,23.77
2018-07-08T08:37:56.070Z,23.92
2018-07-08T08:40:27.630Z,26.44
2018-07-08T08:42:59.038Z,24.52
2018-07-08T08:45:30.714Z,22.45
2018-07-08T08:48:01.946Z,22.13
2018-07-08T08:50:33.284Z,21.52
2018-07-08T08:53:05.809Z,22.11
2018-07-08T08:55:38.224Z,21.37
2018-07-08T08:58:10.564Z,21.62
2018-07-08T09:00:41.905Z,19.56
2018-07-08T09:03:13.436Z,19.06
2018-07-08T09:05:44.601Z,19.07
2018-07-08T09:08:17.464Z,18.86
2018-07-08T09:10:50.160Z,19.23
2018-07-08T09:13:29.763Z,19.18
2018-07-08T09:16:01.502Z,20.80
2018-07-08T09:18:33.449Z,21.07
2018-07-08T09:21:06.407Z,21.13
2018-07-08T09:23:38.794Z,20.97
2018-07-08T09:26:10.010Z,20.89
2018-07-08T09:28:41.026Z,20.06
2018-07-08T09:31:13.965Z,21.26
2018-07-08T09:33:45.588Z,20.44
2018-07-08T09:36:16.224Z,19.43
2018-07-08T09:38:47.834Z,20.14
2018-07-08T09:41:19.764Z,20.56
2018-07-08T09:43:51.665Z,21.43
2018-07-08T09:46:23.049Z,20.77
2018-07-08T09:48:54.712Z,20.93
2018-07-08T09:51:25.429Z,19.72
2018-07-08T09:53:56.398Z,18.52
2018-07-08T09:56:28.087Z,18.60
2018-07-08T09:59:00.081Z,17.85
2018-07-08T10:01:35.566Z,17.87
2018-07-08T10:04:07.474Z,17.46
2018-07-08T10:06:39.219Z,18.70
2018-07-08T10:09:13.502Z,18.14
2018-07-08T10:11:47.494Z,18.41
2018-07-08T10:14:19.736Z,18.58
2018-07-08T10:16:51.264Z,17.93
2018-07-08T10:19:22.476Z,17.80
2018-07-08T10:21:53.952Z,17.87
2018-07-08T10:24:25.754Z,16.38
2018-07-08T10:28:17.889Z,17.38
2018-07-08T10:30:49.489Z,17.77
2018-07-08T10:33:20.867Z,17.18
2018-07-08T10:36:03.912Z,17.39
2018-07-08T10:38:35.961Z,17.14
2018-07-08T10:41:07.531Z,17.21
2018-07-08T10:43:38.559Z,17.39
2018-07-08T10:46:09.521Z,17.16
2018-07-08T10:48:43.639Z,17.78
2018-07-08T10:51:14.934Z,16.92
2018-07-08T10:53:46.701Z,18.53
2018-07-08T10:56:18.187Z,18.42
2018-07-08T10:58:49.430Z,18.83
2018-07-08T11:01:20.557Z,19.02
2018-07-08T11:03:52.576Z,18.85
2018-07-08T11:06:23.715Z,19.81
2018-07-08T11:08:55.580Z,21.14
2018-07-08T11:11:27.374Z,19.72
2018-07-08T11:13:59.402Z,19.26
2018-07-08T11:16:30.530Z,19.75
2018-07-08T11:19:01.388Z,20.76
2018-07-08T11:21:32.701Z,19.90
2018-07-08T11:24:05.454Z,20.68
2018-07-08T11:26:36.714Z,19.69
2018-07-08T11:29:08.894Z,19.81
2018-07-08T11:31:40.817Z,20.29
2018-07-08T11:34:12.543Z,21.18
2018-07-08T11:36:46.932Z,21.07
2018-07-08T11:39:22.708Z,20.84
2018-07-08T11:41:56.320Z,20.87
2018-07-08T11:44:29.724Z,20.76
2018-07-08T11:47:01.498Z,20.83
2018-07-08T11:49:32.748Z,21.62
2018-07-08T11:52:06.206Z,22.36
2018-07-08T11:54:37.567Z,20.71
2018-07-08T11:57:10.815Z,19.12
2018-07-08T11:59:43.558Z,18.74
2018-07-08T12:02:14.943Z,18.74
2018-07-08T12:04:46.386Z,19.40
2018-07-08T12:07:17.788Z,19.22
2018-07-08T12:09:49.715Z,18.84
2018-07-08T12:12:21.243Z,18.19
2018-07-08T12:14:52.976Z,19.00
2018-07-08T12:17:25.235Z,19.03
2018-07-08T12:19:58.828Z,18.80
2018-07-08T12:22:37.984Z,18.66
2018-07-08T12:25:09.427Z,19.37
2018-07-08T12:27:40.998Z,18.79
2018-07-08T12:30:13.468Z,20.04
2018-07-08T12:32:44.614Z,18.79
2018-07-08T12:35:16.344Z,19.19
2018-07-08T12:37:47.417Z,18.99
2018-07-08T12:40:19.441Z,20.98
2018-07-08T12:42:53.898Z,20.29
2018-07-08T12:45:41.624Z,20.58
2018-07-08T12:48:14.593Z,21.71
2018-07-08T12:50:47.117Z,22.15
2018-07-08T12:53:19.084Z,21.54
2018-07-08T12:55:52.094Z,20.58
2018-07-08T12:58:24.826Z,19.54
2018-07-08T13:00:57.615Z,19.79
2018-07-08T13:03:29.115Z,19.79
2018-07-08T13:05:59.814Z,19.82
2018-07-08T13:08:31.131Z,19.60
2018-07-08T13:11:05.314Z,19.42
2018-07-08T13:13:38.829Z,18.77
2018-07-08T13:16:13.979Z,19.17
2018-07-08T13:18:48.183Z,18.56
2018-07-08T13:21:22.549Z,18.46
2018-07-08T13:23:55.288Z,18.57
2018-07-08T13:26:26.909Z,18.54
2018-07-08T13:28:59.268Z,18.52
2018-07-08T13:31:31.914Z,18.68
2018-07-08T13:34:03.565Z,17.97
2018-07-08T13:36:37.537Z,19.91
2018-07-08T13:39:10.913Z,19.45
2018-07-08T13:41:42.459Z,19.84
2018-07-08T13:44:13.581Z,20.10
2018-07-08T13:46:45.292Z,20.26
2018-07-08T13:49:16.859Z,18.23
2018-07-08T13:51:51.389Z,17.89
2018-07-08T13:54:23.955Z,18.12
2018-07-08T13:56:58.324Z,18.53
2018-07-08T13:59:30.019Z,18.74
2018-07-08T14:02:11.632Z,19.11
2018-07-08T14:04:43.812Z,18.98
2018-07-08T14:07:16.477Z,19.66
2018-07-08T14:09:51.112Z,19.42
2018-07-08T14:12:22.330Z,19.71
2018-07-08T14:14:55.199Z,20.10
2018-07-08T14:17:29.781Z,20.49
2018-07-08T14:20:05.336Z,20.47
2018-07-08T14:22:37.015Z,20.27
2018-07-08T14:25:08.739Z,19.48
2018-07-08T14:27:40.415Z,20.01
2018-07-08T14:30:12.307Z,20.11
2018-07-08T14:32:44.204Z,19.81
2018-07-08T14:35:14.991Z,20.04
2018-07-08T14:37:46.738Z,19.67
2018-07-08T14:40:17.881Z,19.92
2018-07-08T14:42:49.074Z,20.34
2018-07-08T14:45:21.483Z,21.60
2018-07-08T14:47:53.460Z,22.24
2018-07-08T14:50:25.308Z,22.20
2018-07-08T14:52:56.273Z,22.80
2018-07-08T14:55:27.844Z,23.42
2018-07-08T14:57:58.818Z,23.51
2018-07-08T15:00:30.108Z,23.78
2018-07-08T15:03:03.404Z,22.13
2018-07-08T15:05:35.906Z,22.65
2018-07-08T15:08:06.693Z,22.93
2018-07-08T15:10:37.724Z,22.51
2018-07-08T15:13:08.846Z,22.57
2018-07-08T15:15:39.866Z,22.29
2018-07-08T15:18:11.526Z,22.03
2018-07-08T15:20:43.737Z,23.63
2018-07-08T15:23:16.127Z,23.51
2018-07-08T15:25:47.197Z,23.03
2018-07-08T15:28:18.682Z,23.08
2018-07-08T15:30:51.241Z,23.93
2018-07-08T15:33:22.312Z,23.12
2018-07-08T15:35:54.123Z,23.22
2018-07-08T15:38:26.713Z,23.03
2018-07-08T15:40:59.246Z,23.01
2018-07-08T15:43:30.648Z,24.64
2018-07-08T15:46:02.224Z,23.57
2018-07-08T15:48:33.710Z,25.16
2018-07-08T15:51:04.938Z,24.64
2018-07-08T15:53:37.646Z,25.16
2018-07-08T15:56:09.700Z,24.75
2018-07-08T15:58:41.660Z,25.27
2018-07-08T16:01:12.666Z,25.25
2018-07-08T16:03:43.927Z,25.68
2018-07-08T16:06:15.006Z,25.28
2018-07-08T16:08:46.940Z,25.69
2018-07-08T16:11:18.885Z,27.20
2018-07-08T16:13:51.924Z,27.02
2018-07-08T16:16:23.848Z,27.11
2018-07-08T16:18:55.183Z,27.13
2018-07-08T16:21:26.386Z,26.92
2018-07-08T16:23:57.716Z,27.01
2018-07-08T16:26:29.479Z,26.07
2018-07-08T16:29:02.024Z,25.83
2018-07-08T16:31:34.698Z,26.00
2018-07-08T16:34:07.818Z,26.89
2018-07-08T16:36:39.730Z,27.22
2018-07-08T16:39:12.290Z,27.34
2018-07-08T16:41:44.189Z,28.49
2018-07-08T16:44:17.645Z,27.84
2018-07-08T16:46:49.547Z,27.94
2018-07-08T16:49:21.343Z,27.48
2018-07-08T16:51:52.433Z,27.31
2018-07-08T16:54:23.770Z,27.37
2018-07-08T16:56:55.518Z,27.30
2018-07-08T16:59:27.275Z,28.02
2018-07-08T17:01:58.374Z,27.48
2018-07-08T17:04:29.594Z,27.97
2018-07-08T17:07:01.684Z,28.01
2018-07-08T17:09:32.966Z,28.71
2018-07-08T17:12:04.634Z,29.05
2018-07-08T17:14:36.614Z,29.91
2018-07-08T17:17:08.817Z,30.13
2018-07-08T17:19:40.038Z,31.12
2018-07-08T17:22:11.974Z,31.26
2018-07-08T17:24:44.226Z,31.64
2018-07-08T17:27:16.094Z,30.69
2018-07-08T17:29:48.852Z,30.80
2018-07-08T17:32:21.032Z,31.27
2018-07-08T17:34:52.769Z,31.17
2018-07-08T17:37:24.044Z,32.33
2018-07-08T17:39:55.271Z,33.86
2018-07-08T17:42:30.088Z,33.46
2018-07-08T17:45:02.541Z,34.24
2018-07-08T17:47:35.061Z,36.82
2018-07-08T17:50:07.814Z,38.14
2018-07-08T17:52:39.445Z,37.09
2018-07-08T17:55:11.079Z,36.97
2018-07-08T17:57:43.779Z,38.39
2018-07-08T18:00:16.202Z,38.31
2018-07-08T18:02:48.837Z,39.83
2018-07-08T18:05:21.271Z,40.35
2018-07-08T18:07:58.382Z,37.01
2018-07-08T18:10:31.973Z,38.87
2018-07-08T18:13:04.494Z,39.39
2018-07-08T18:15:37.918Z,37.03
2018-07-08T18:18:09.726Z,35.86
2018-07-08T18:20:41.709Z,37.48
2018-07-08T18:23:13.163Z,39.42
2018-07-08T18:25:44.982Z,41.16
2018-07-08T18:28:17.418Z,40.79
2018-07-08T18:30:50.299Z,39.75
2018-07-08T18:33:22.505Z,39.81
2018-07-08T18:35:55.857Z,40.39
2018-07-08T18:38:28.950Z,39.75
2018-07-08T18:41:01.658Z,39.13
2018-07-08T18:43:35.686Z,38.63
2018-07-08T18:46:08.915Z,39.67
2018-07-08T18:48:41.643Z,41.03
2018-07-08T18:51:15.311Z,41.13
2018-07-08T18:53:48.677Z,42.69
2018-07-08T18:56:22.774Z,41.88
2018-07-08T18:58:55.959Z,42.07
2018-07-08T19:01:29.720Z,42.00
2018-07-08T19:04:03.161Z,43.28
2018-07-08T19:06:36.086Z,42.88
2018-07-08T19:09:09.615Z,44.08
2018-07-08T19:11:42.370Z,44.35
2018-07-08T19:14:15.625Z,43.74
2018-07-08T19:16:49.072Z,44.80
2018-07-08T19:19:21.624Z,45.20
2018-07-08T19:21:55.128Z,45.35
2018-07-08T19:24:28.086Z,45.72
2018-07-08T19:27:00.854Z,46.67
2018-07-08T19:29:33.417Z,47.12
2018-07-08T19:32:07.148Z,45.97
2018-07-08T19:34:40.043Z,46.43
2018-07-08T19:37:13.581Z,45.77
2018-07-08T19:39:45.993Z,45.87
2018-07-08T19:42:19.274Z,45.07
2018-07-08T19:44:53.898Z,45.56
2018-07-08T19:47:27.836Z,45.96
2018-07-08T19:50:02.001Z,47.06
2018-07-08T19:52:34.872Z,46.98
2018-07-08T19:55:08.071Z,46.03
2018-07-08T19:57:40.375Z,45.41
2018-07-08T20:00:12.729Z,45.28
2018-07-08T20:02:47.509Z,45.05
2018-07-08T20:05:20.719Z,45.10
2018-07-08T20:07:54.232Z,46.13
2018-07-08T20:10:27.678Z,46.33
2018-07-08T20:13:00.610Z,46.57
2018-07-08T20:15:34.356Z,46.58
2018-07-08T20:18:07.579Z,47.20
2018-07-08T20:20:40.081Z,47.50
2018-07-08T20:23:12.896Z,48.11
2018-07-08T20:25:46.074Z,48.20
2018-07-08T20:28:19.990Z,49.63
2018-07-08T20:30:53.216Z,49.43
2018-07-08T20:33:26.344Z,50.62
2018-07-08T20:36:01.292Z,51.59
2018-07-08T20:38:35.361Z,52.13
2018-07-08T20:41:10.400Z,51.80
2018-07-08T20:43:43.017Z,51.62
2018-07-08T20:46:15.959Z,52.16
2018-07-08T20:48:50.985Z,51.79
2018-07-08T20:51:24.585Z,51.33
2018-07-08T20:53:58.757Z,52.02
2018-07-08T20:56:32.503Z,51.85
2018-07-08T20:59:06.573Z,52.12
2018-07-08T21:01:40.916Z,52.03
2018-07-08T21:04:15.132Z,51.35
2018-07-08T21:06:48.428Z,51.25
2018-07-08T21:09:21.510Z,52.19
2018-07-08T21:11:55.053Z,52.50
2018-07-08T21:14:29.167Z,52.68
2018-07-08T21:17:03.295Z,54.03
2018-07-08T21:19:36.463Z,52.79
2018-07-08T21:22:09.619Z,56.59
2018-07-08T21:24:43.879Z,56.99
2018-07-08T21:27:16.923Z,57.14
2018-07-08T21:29:49.820Z,57.29
2018-07-08T21:32:21.586Z,56.60
2018-07-08T21:34:53.687Z,55.22
2018-07-08T21:37:25.665Z,55.21
2018-07-08T21:39:58.768Z,54.26
2018-07-08T21:42:31.095Z,54.96
2018-07-08T21:45:03.643Z,55.24
2018-07-08T21:47:35.880Z,55.11
2018-07-08T21:50:07.728Z,55.24
2018-07-08T21:52:38.945Z,55.46
2018-07-08T21:55:11.716Z,56.45
2018-07-08T21:57:42.816Z,58.65
2018-07-08T22:00:15.595Z,59.38
2018-07-08T22:02:47.725Z,59.93
2018-07-08T22:05:18.800Z,61.11
2018-07-08T22:08:01.679Z,61.29
2018-07-08T22:10:33.167Z,63.54
2018-07-08T22:13:05.086Z,59.77
2018-07-08T22:15:35.882Z,60.34
2018-07-08T22:18:07.684Z,62.05
2018-07-08T22:20:38.930Z,62.65
2018-07-08T22:23:10.821Z,64.24
2018-07-08T22:25:41.999Z,65.13
2018-07-08T22:28:14.458Z,64.97
2018-07-08T22:30:46.866Z,65.67
2018-07-08T22:33:18.080Z,65.20
2018-07-08T22:35:49.183Z,64.10
2018-07-08T22:38:21.178Z,64.38
2018-07-08T22:40:52.856Z,63.72
2018-07-08T22:43:24.306Z,64.00
2018-07-08T22:45:57.423Z,65.03
2018-07-08T22:48:28.744Z,65.66
2018-07-08T22:50:59.562Z,65.99
2018-07-08T22:53:30.904Z,65.65
2018-07-08T22:56:02.829Z,65.87
2018-07-08T22:58:33.880Z,65.30
2018-07-08T23:01:21.004Z,65.08
2018-07-08T23:03:57.123Z,65.57
2018-07-08T23:06:27.603Z,65.43
2018-07-08T23:08:58.641Z,65.35
2018-07-08T23:11:30.749Z,65.33
2018-07-08T23:14:02.270Z,65.41
2018-07-08T23:16:34.254Z,64.79
2018-07-08T23:19:05.744Z,64.83
2018-07-08T23:21:36.807Z,65.42
2018-07-08T23:24:07.809Z,65.37
2018-07-08T23:26:39.000Z,64.78
2018-07-08T23:29:10.074Z,65.05
2018-07-08T23:31:41.988Z,64.77
2018-07-08T23:34:14.080Z,64.62
2018-07-08T23:36:44.980Z,64.75
2018-07-08T23:39:17.195Z,64.58
2018-07-08T23:41:48.236Z,65.04
2018-07-08T23:44:20.549Z,67.66
2018-07-08T23:46:52.361Z,69.59
2018-07-08T23:49:24.329Z,71.17
2018-07-08T23:51:55.464Z,71.08
2018-07-08T23:54:26.501Z,71.66
2018-07-08T23:56:57.433Z,71.77
2018-07-08T23:59:28.585Z,72.06
